Time;durP1;ratioP1;P1;durP2;ratioP2;P2;SDS_P1;SDS_P2;PMS_P1;PMS_P2;Temp;Humidity;BMP_temperature;BMP_pressure;BME280_temperature;BME280_humidity;BME280_pressure;Samples;Min_cycle;Max_cycle;Signal;HPM_P1;HPM_P2
2023/05/29 00:02:25;;;;;;;;;;;;;;;;;;7366534;19;833;-62
2023/05/29 00:04:53;;;;;;;;;;;;;;;;;;7366385;19;775;-61
2023/05/29 00:07:21;;;;;;;;;;;;;;;;;;7365687;19;795;-60
2023/05/29 00:09:49;;;;;;;;;;;;;;;;;;7363453;19;1337;-60
2023/05/29 00:12:18;;;;;;;;;;;;;;;;;;7366117;19;866;-60
2023/05/29 00:14:46;;;;;;;;;;;;;;;;;;7368947;19;816;-60
2023/05/29 00:17:15;;;;;;;;;;;;;;;;;;7363913;19;1834;-60
2023/05/29 00:19:43;;;;;;;;;;;;;;;;;;7363748;19;1298;-60
2023/05/29 00:22:11;;;;;;;;;;;;;;;;;;7366517;19;937;-61
2023/05/29 00:24:39;;;;;;;;;;;;;;;;;;7365173;19;866;-59
2023/05/29 00:27:08;;;;;;;;;;;;;;;;;;7366569;19;874;-62
2023/05/29 00:29:37;;;;;;;;;;;;;;;;;;7363361;19;1280;-60
2023/05/29 00:32:05;;;;;;;;;;;;;;;;;;7367436;19;907;-62
2023/05/29 00:34:33;;;;;;;;;;;;;;;;;;7366119;19;780;-62
2023/05/29 00:37:02;;;;;;;;;;;;;;;;;;7364579;19;1869;-62
2023/05/29 00:39:30;;;;;;;;;;;;;;;;;;7362120;19;1341;-59
2023/05/29 00:41:58;;;;;;;;;;;;;;;;;;7365966;19;814;-59
2023/05/29 00:44:26;;;;;;;;;;;;;;;;;;7364233;19;881;-61
2023/05/29 00:46:55;;;;;;;;;;;;;;;;;;7367126;19;1749;-60
2023/05/29 00:49:23;;;;;;;;;;;;;;;;;;7366591;19;1290;-59
2023/05/29 00:51:51;;;;;;;;;;;;;;;;;;7365855;19;828;-61
2023/05/29 00:54:20;;;;;;;;;;;;;;;;;;7363737;19;858;-62
2023/05/29 00:56:48;;;;;;;;;;;;;;;;;;7365531;19;1859;-60
2023/05/29 00:59:18;;;;;;;;;;;;;;;;;;7361731;19;1299;-60
2023/05/29 01:01:46;;;;;;;;;;;;;;;;;;7366016;19;942;-61
2023/05/29 01:04:15;;;;;;;;;;;;;;;;;;7364866;19;819;-60
2023/05/29 01:06:43;;;;;;;;;;;;;;;;;;7370193;19;814;-61
2023/05/29 01:09:11;;;;;;;;;;;;;;;;;;7363160;19;1348;-61
2023/05/29 01:11:39;;;;;;;;;;;;;;;;;;7364923;19;814;-60
2023/05/29 01:14:09;;;;;;;;;;;;;;;;;;7363862;19;820;-61
2023/05/29 01:16:38;;;;;;;;;;;;;;;;;;7364640;19;1853;-59
2023/05/29 01:19:08;;;;;;;;;;;;;;;;;;7361861;19;1265;-61
2023/05/29 01:21:37;;;;;;;;;;;;;;;;;;7364823;19;910;-61
2023/05/29 01:24:05;;;;;;;;;;;;;;;;;;7366017;19;850;-61
2023/05/29 01:26:33;;;;;;;;;;;;;;;;;;7364107;19;902;-60
2023/05/29 01:29:01;;;;;;;;;;;;;;;;;;7359358;19;1285;-61
2023/05/29 01:31:30;;;;;;;;;;;;;;;;;;7363069;19;819;-61
2023/05/29 01:34:00;;;;;;;;;;;;;;;;;;7364625;19;1179;-61
2023/05/29 01:36:28;;;;;;;;;;;;;;;;;;7363237;19;1857;-60
2023/05/29 01:38:56;;;;;;;;;;;;;;;;;;7361347;19;1302;-61
2023/05/29 01:41:24;;;;;;;;;;;;;;;;;;7363355;19;795;-60
2023/05/29 01:43:53;;;;;;;;;;;;;;;;;;7363309;19;850;-61
2023/05/29 01:46:21;;;;;;;;;;;;;;;;;;7364312;19;849;-60
2023/05/29 01:48:49;;;;;;;;;;;;;;;;;;7360470;19;1298;-60
2023/05/29 01:51:17;;;;;;;;;;;;;;;;;;7363877;19;862;-62
2023/05/29 01:53:45;;;;;;;;;;;;;;;;;;7366523;19;1899;-61
2023/05/29 01:56:14;;;;;;;;;;;;;;;;;;7363283;19;1854;-61
2023/05/29 01:58:42;;;;;;;;;;;;;;;;;;7363961;19;1739;-61
2023/05/29 02:01:10;;;;;;;;;;;;;;;;;;7363476;19;1811;-60
2023/05/29 02:03:38;;;;;;;;;;;;;;;;;;7364350;19;1781;-61
2023/05/29 02:06:06;;;;;;;;;;;;;;;;;;7366289;19;1898;-60
2023/05/29 02:08:34;;;;;;;;;;;;;;;;;;7362740;19;2194;-62
2023/05/29 02:11:03;;;;;;;;;;;;;;;;;;7366069;19;1860;-62
2023/05/29 02:13:31;;;;;;;;;;;;;;;;;;7364541;19;1796;-62
2023/05/29 02:15:59;;;;;;;;;;;;;;;;;;7365121;19;1237;-62
2023/05/29 02:18:27;;;;;;;;;;;;;;;;;;7361463;19;1853;-62
2023/05/29 02:20:55;;;;;;;;;;;;;;;;;;7365034;19;1253;-62
2023/05/29 02:23:24;;;;;;;;;;;;;;;;;;7364020;19;2122;-62
2023/05/29 02:25:53;;;;;;;;;;;;;;;;;;7365848;19;1645;-62
2023/05/29 02:28:22;;;;;;;;;;;;;;;;;;7361838;19;1959;-61
2023/05/29 02:30:50;;;;;;;;;;;;;;;;;;7363581;19;1648;-61
2023/05/29 02:33:19;;;;;;;;;;;;;;;;;;7364869;19;2024;-62
2023/05/29 02:35:47;;;;;;;;;;;;;;;;;;7364316;19;1828;-61
2023/05/29 02:38:15;;;;;;;;;;;;;;;;;;7362283;19;1891;-62
2023/05/29 02:40:43;;;;;;;;;;;;;;;;;;7371381;19;1819;-60
2023/05/29 02:43:11;;;;;;;;;;;;;;;;;;7371508;19;1672;-59
2023/05/29 02:45:39;;;;;;;;;;;;;;;;;;7370090;19;1858;-60
2023/05/29 02:48:07;;;;;;;;;;;;;;;;;;7369510;19;1930;-61
2023/05/29 02:50:35;;;;;;;;;;;;;;;;;;7369440;19;1934;-61
2023/05/29 02:53:03;;;;;;;;;;;;;;;;;;7369880;19;1649;-61
2023/05/29 02:55:35;;;;;;;;;;;;;;;;;;7372219;19;1599;-62
2023/05/29 02:58:04;;;;;;;;;;;;;;;;;;7367622;19;2158;-61
2023/05/29 03:00:32;;;;;;;;;;;;;;;;;;7373070;19;1537;-62
2023/05/29 03:03:00;;;;;;;;;;;;;;;;;;7370583;19;1910;-61
2023/05/29 03:05:28;;;;;;;;;;;;;;;;;;7371502;19;1667;-61
2023/05/29 03:07:56;;;;;;;;;;;;;;;;;;7368254;19;1906;-62
2023/05/29 03:10:24;;;;;;;;;;;;;;;;;;7369865;19;1928;-61
2023/05/29 03:12:54;;;;;;;;;;;;;;;;;;7370956;19;1670;-61
2023/05/29 03:15:22;;;;;;;;;;;;;;;;;;7368944;19;2117;-61
2023/05/29 03:17:50;;;;;;;;;;;;;;;;;;7364194;19;2042;-62
2023/05/29 03:20:23;;;;;;;;;;;;;;;;;;7370253;19;1910;-61
2023/05/29 03:22:54;;;;;;;;;;;;;;;;;;7370096;19;1703;-62
2023/05/29 03:25:23;;;;;;;;;;;;;;;;;;7369477;19;1850;-62
2023/05/29 03:27:51;;;;;;;;;;;;;;;;;;7369202;19;1491;-62
2023/05/29 03:30:21;;;;;;;;;;;;;;;;;;7368895;19;1829;-61
2023/05/29 03:32:50;;;;;;;;;;;;;;;;;;7369527;19;2026;-61
2023/05/29 03:35:19;;;;;;;;;;;;;;;;;;7367808;19;2037;-61
2023/05/29 03:37:48;;;;;;;;;;;;;;;;;;7365965;19;2125;-59
2023/05/29 03:40:16;;;;;;;;;;;;;;;;;;7365941;19;1795;-57
2023/05/29 03:42:44;;;;;;;;;;;;;;;;;;7369383;19;1469;-58
2023/05/29 03:45:14;;;;;;;;;;;;;;;;;;7368167;19;1910;-59
2023/05/29 03:47:43;;;;;;;;;;;;;;;;;;7367779;19;1766;-57
2023/05/29 03:50:14;;;;;;;;;;;;;;;;;;7363770;19;1727;-59
2023/05/29 03:52:42;;;;;;;;;;;;;;;;;;7368706;19;1811;-57
2023/05/29 03:55:12;;;;;;;;;;;;;;;;;;7365572;19;2026;-59
2023/05/29 03:57:41;;;;;;;;;;;;;;;;;;7365398;19;2165;-60
2023/05/29 04:00:10;;;;;;;;;;;;;;;;;;7365613;19;1716;-58
2023/05/29 04:02:41;;;;;;;;;;;;;;;;;;7367931;19;1739;-59
2023/05/29 04:05:09;;;;;;;;;;;;;;;;;;7368762;19;1881;-58
2023/05/29 04:07:38;;;;;;;;;;;;;;;;;;7366345;19;1676;-61
2023/05/29 04:10:06;;;;;;;;;;;;;;;;;;7365409;19;1943;-63
2023/05/29 04:12:36;;;;;;;;;;;;;;;;;;7369030;19;1530;-61
2023/05/29 04:15:04;;;;;;;;;;;;;;;;;;7366003;19;2000;-61
2023/05/29 04:17:32;;;;;;;;;;;;;;;;;;7367797;19;1872;-61
2023/05/29 04:20:05;;;;;;;;;;;;;;;;;;7361074;19;2054;-61
2023/05/29 04:22:33;;;;;;;;;;;;;;;;;;7370074;19;1924;-61
2023/05/29 04:25:03;;;;;;;;;;;;;;;;;;7368392;19;1910;-61
2023/05/29 04:27:32;;;;;;;;;;;;;;;;;;7368156;19;1621;-62
2023/05/29 04:30:02;;;;;;;;;;;;;;;;;;7363559;19;1938;-61
2023/05/29 04:32:36;;;;;;;;;;;;;;;;;;7367101;19;1839;-62
2023/05/29 04:35:04;;;;;;;;;;;;;;;;;;7367193;19;1981;-60
2023/05/29 04:37:38;;;;;;;;;;;;;;;;;;7367728;19;1901;-62
2023/05/29 04:40:08;;;;;;;;;;;;;;;;;;7364629;19;1894;-61
2023/05/29 04:42:36;;;;;;;;;;;;;;;;;;7367353;19;1937;-62
2023/05/29 04:45:05;;;;;;;;;;;;;;;;;;7366779;19;1788;-61
2023/05/29 04:47:36;;;;;;;;;;;;;;;;;;7367071;19;1848;-61
2023/05/29 04:50:04;;;;;;;;;;;;;;;;;;7362906;19;1876;-61
2023/05/29 04:52:32;;;;;;;;;;;;;;;;;;7367526;19;1555;-62
2023/05/29 04:55:01;;;;;;;;;;;;;;;;;;7366279;19;1765;-61
2023/05/29 04:57:29;;;;;;;;;;;;;;;;;;7366661;19;2020;-62
2023/05/29 04:59:58;;;;;;;;;;;;;;;;;;7361139;19;1893;-61
2023/05/29 05:02:26;;;;;;;;;;;;;;;;;;7367572;19;1869;-62
2023/05/29 05:04:54;;;;;;;;;;;;;;;;;;7368568;19;1000;-62
2023/05/29 05:07:22;;;;;;;;;;;;;;;;;;7367473;19;1635;-61
2023/05/29 05:09:50;;;;;;;;;;;;;;;;;;7360176;19;1310;-61
2023/05/29 05:12:23;;;;;;;;;;;;;;;;;;7363855;19;784;-62
2023/05/29 05:14:51;;;;;;;;;;;;;;;;;;7364354;19;806;-61
2023/05/29 05:17:20;;;;;;;;;;;;;;;;;;7363825;19;1867;-62
2023/05/29 05:19:49;;;;;;;;;;;;;;;;;;7363191;19;1504;-61
2023/05/29 05:22:18;;;;;;;;;;;;;;;;;;7362150;19;874;-63
2023/05/29 05:24:46;;;;;;;;;;;;;;;;;;7362303;19;807;-62
2023/05/29 05:27:14;;;;;;;;;;;;;;;;;;7362703;19;798;-62
2023/05/29 05:29:42;;;;;;;;;;;;;;;;;;7359977;19;1283;-62
2023/05/29 05:32:11;;;;;;;;;;;;;;;;;;7364837;19;1238;-62
2023/05/29 05:34:39;;;;;;;;;;;;;;;;;;7364988;19;1328;-62
2023/05/29 05:37:08;;;;;;;;;;;;;;;;;;7365242;19;1321;-64
2023/05/29 05:39:36;;;;;;;;;;;;;;;;;;7359321;19;1845;-62
2023/05/29 05:42:05;;;;;;;;;;;;;;;;;;7362724;19;779;-63
2023/05/29 05:44:59;;;;;;;;;;;;;;;;;;7364084;19;1153;-63
2023/05/29 05:47:27;;;;;;;;;;;;;;;;;;7362931;19;828;-62
2023/05/29 05:49:55;;;;;;;;;;;;;;;;;;7360872;19;1239;-63
2023/05/29 05:52:24;;;;;;;;;;;;;;;;;;7363083;19;831;-62
2023/05/29 05:54:53;;;;;;;;;;;;;;;;;;7365114;19;1597;-63
2023/05/29 05:57:21;;;;;;;;;;;;;;;;;;7365077;19;823;-62
2023/05/29 05:59:49;;;;;;;;;;;;;;;;;;7358456;19;1869;-63
2023/05/29 06:02:18;;;;;;;;;;;;;;;;;;7363635;19;859;-63
2023/05/29 06:04:46;;;;;;;;;;;;;;;;;;7363725;19;794;-63
2023/05/29 06:07:14;;;;;;;;;;;;;;;;;;7363819;19;849;-63
2023/05/29 06:09:42;;;;;;;;;;;;;;;;;;7359899;19;1254;-64
2023/05/29 06:12:10;;;;;;;;;;;;;;;;;;7362205;19;872;-63
2023/05/29 06:14:44;;;;;;;;;;;;;;;;;;7365365;19;768;-63
2023/05/29 06:17:13;;;;;;;;;;;;;;;;;;7368454;19;846;-63
2023/05/29 06:19:41;;;;;;;;;;;;;;;;;;7366023;19;1848;-61
2023/05/29 06:22:09;;;;;;;;;;;;;;;;;;7372811;19;2213;-63
2023/05/29 06:24:39;;;;;;;;;;;;;;;;;;7369628;19;764;-63
2023/05/29 06:27:07;;;;;;;;;;;;;;;;;;7367383;19;1784;-63
2023/05/29 06:29:36;;;;;;;;;;;;;;;;;;7368900;19;1825;-63
2023/05/29 06:32:04;;;;;;;;;;;;;;;;;;7369034;19;2083;-63
2023/05/29 06:34:33;;;;;;;;;;;;;;;;;;7371158;19;1760;-63
2023/05/29 06:37:01;;;;;;;;;;;;;;;;;;7369286;19;1982;-63
2023/05/29 06:39:29;;;;;;;;;;;;;;;;;;7369364;19;1841;-62
2023/05/29 06:41:57;;;;;;;;;;;;;;;;;;7364327;19;2297;-64
2023/05/29 06:44:25;;;;;;;;;;;;;;;;;;7370848;19;1974;-62
2023/05/29 06:46:55;;;;;;;;;;;;;;;;;;7365422;19;2176;-62
2023/05/29 06:49:24;;;;;;;;;;;;;;;;;;7367634;19;1996;-62
2023/05/29 06:51:52;;;;;;;;;;;;;;;;;;7370353;19;1877;-63
2023/05/29 06:54:26;;;;;;;;;;;;;;;;;;7371516;19;1432;-63
2023/05/29 06:56:54;;;;;;;;;;;;;;;;;;7368113;19;2277;-64
2023/05/29 06:59:23;;;;;;;;;;;;;;;;;;7369353;19;1879;-63
2023/05/29 07:01:51;;;;;;;;;;;;;;;;;;7367669;19;2379;-64
2023/05/29 07:04:19;;;;;;;;;;;;;;;;;;7368686;19;1800;-64
2023/05/29 07:06:47;;;;;;;;;;;;;;;;;;7367083;19;1902;-63
2023/05/29 07:09:16;;;;;;;;;;;;;;;;;;7365961;19;2308;-62
2023/05/29 07:11:44;;;;;;;;;;;;;;;;;;7368932;19;2039;-63
2023/05/29 07:14:12;;;;;;;;;;;;;;;;;;7370336;19;1497;-63
2023/05/29 07:16:40;;;;;;;;;;;;;;;;;;7367576;19;1795;-63
2023/05/29 07:19:08;;;;;;;;;;;;;;;;;;7368164;19;1862;-63
2023/05/29 07:21:39;;;;;;;;;;;;;;;;;;7366108;19;1828;-63
2023/05/29 07:24:07;;;;;;;;;;;;;;;;;;7370390;19;1228;-63
2023/05/29 07:26:37;;;;;;;;;;;;;;;;;;7363172;19;2228;-63
2023/05/29 07:29:05;;;;;;;;;;;;;;;;;;7368123;19;1326;-64
2023/05/29 07:31:35;;;;;;;;;;;;;;;;;;7369149;19;1985;-63
2023/05/29 07:34:03;;;;;;;;;;;;;;;;;;7370780;19;1663;-62
2023/05/29 07:36:32;;;;;;;;;;;;;;;;;;7365854;19;2060;-63
2023/05/29 07:39:01;;;;;;;;;;;;;;;;;;7364874;19;2140;-63
2023/05/29 07:41:29;;;;;;;;;;;;;;;;;;7369054;19;1846;-64
2023/05/29 07:43:57;;;;;;;;;;;;;;;;;;7365571;19;1866;-64
2023/05/29 07:46:25;;;;;;;;;;;;;;;;;;7369121;19;1235;-64
2023/05/29 07:49:02;;;;;;;;;;;;;;;;;;7361440;19;1938;-63
2023/05/29 07:51:31;;;;;;;;;;;;;;;;;;7370124;19;1534;-63
2023/05/29 07:53:59;;;;;;;;;;;;;;;;;;7366125;19;1808;-63
2023/05/29 07:56:27;;;;;;;;;;;;;;;;;;7370060;19;1657;-63
2023/05/29 07:58:56;;;;;;;;;;;;;;;;;;7364184;19;2026;-62
2023/05/29 08:01:24;;;;;;;;;;;;;;;;;;7366868;19;1811;-64
2023/05/29 08:03:52;;;;;;;;;;;;;;;;;;7368183;19;2090;-63
2023/05/29 08:06:27;;;;;;;;;;;;;;;;;;7369359;19;1690;-63
2023/05/29 08:08:55;;;;;;;;;;;;;;;;;;7364569;19;1967;-63
2023/05/29 08:11:23;;;;;;;;;;;;;;;;;;7367882;19;1768;-64
2023/05/29 08:13:52;;;;;;;;;;;;;;;;;;7367384;19;1762;-63
2023/05/29 08:16:22;;;;;;;;;;;;;;;;;;7363940;19;1856;-64
2023/05/29 08:18:50;;;;;;;;;;;;;;;;;;7365909;19;1850;-61
2023/05/29 08:21:18;;;;;;;;;;;;;;;;;;7365188;19;814;-63
2023/05/29 08:23:46;;;;;;;;;;;;;;;;;;7369501;19;1875;-63
2023/05/29 08:26:15;;;;;;;;;;;;;;;;;;7366728;19;2014;-64
2023/05/29 08:28:43;;;;;;;;;;;;;;;;;;7368093;19;1341;-64
2023/05/29 08:31:11;;;;;;;;;;;;;;;;;;7365051;19;843;-62
2023/05/29 08:33:39;;;;;;;;;;;;;;;;;;7365610;19;819;-60
2023/05/29 08:36:08;;;;;;;;;;;;;;;;;;7370062;19;1708;-64
2023/05/29 08:38:36;;;;;;;;;;;;;;;;;;7366619;19;1850;-64
2023/05/29 08:41:05;;;;;;;;;;;;;;;;;;7364875;19;736;-64
2023/05/29 08:43:33;;;;;;;;;;;;;;;;;;7365651;19;782;-64
2023/05/29 08:46:01;;;;;;;;;;;;;;;;;;7364892;19;818;-64
2023/05/29 08:48:29;;;;;;;;;;;;;;;;;;7363325;19;1303;-64
2023/05/29 08:50:57;;;;;;;;;;;;;;;;;;7365088;19;859;-64
2023/05/29 08:53:25;;;;;;;;;;;;;;;;;;7365566;19;850;-64
2023/05/29 08:55:55;;;;;;;;;;;;;;;;;;7369256;19;1432;-63
2023/05/29 08:58:23;;;;;;;;;;;;;;;;;;7363808;19;1904;-64
2023/05/29 09:00:51;;;;;;;;;;;;;;;;;;7363768;19;1906;-64
2023/05/29 09:03:21;;;;;;;;;;;;;;;;;;7367780;19;1288;-64
2023/05/29 09:05:50;;;;;;;;;;;;;;;;;;7365634;19;760;-63
2023/05/29 09:08:18;;;;;;;;;;;;;;;;;;7364554;19;1265;-63
2023/05/29 09:10:46;;;;;;;;;;;;;;;;;;7365651;19;856;-62
2023/05/29 09:13:15;;;;;;;;;;;;;;;;;;7364814;19;801;-64
2023/05/29 09:15:43;;;;;;;;;;;;;;;;;;7365238;19;778;-64
2023/05/29 09:18:14;;;;;;;;;;;;;;;;;;7356970;19;1931;-64
2023/05/29 09:20:42;;;;;;;;;;;;;;;;;;7362902;19;1899;-64
2023/05/29 09:23:10;;;;;;;;;;;;;;;;;;7365901;19;1662;-63
2023/05/29 09:25:38;;;;;;;;;;;;;;;;;;7365746;19;1735;-62
2023/05/29 09:28:07;;;;;;;;;;;;;;;;;;7365619;19;1680;-63
2023/05/29 09:30:35;;;;;;;;;;;;;;;;;;7365654;19;1899;-63
2023/05/29 09:33:03;;;;;;;;;;;;;;;;;;7367808;19;1403;-61
2023/05/29 09:35:31;;;;;;;;;;;;;;;;;;7368517;19;1162;-63
2023/05/29 09:38:00;;;;;;;;;;;;;;;;;;7358008;19;1941;-63
2023/05/29 09:40:28;;;;;;;;;;;;;;;;;;7361013;19;2226;-63
2023/05/29 09:42:56;;;;;;;;;;;;;;;;;;7366092;19;1866;-63
2023/05/29 09:45:24;;;;;;;;;;;;;;;;;;7367148;19;1654;-63
2023/05/29 09:47:53;;;;;;;;;;;;;;;;;;7363654;19;1825;-63
2023/05/29 09:50:22;;;;;;;;;;;;;;;;;;7362504;19;1581;-62
2023/05/29 09:52:52;;;;;;;;;;;;;;;;;;7364831;19;1803;-63
2023/05/29 09:55:21;;;;;;;;;;;;;;;;;;7363176;19;1781;-63
2023/05/29 09:57:49;;;;;;;;;;;;;;;;;;7365516;19;2105;-64
2023/05/29 10:00:17;;;;;;;;;;;;;;;;;;7361843;19;1859;-63
2023/05/29 10:02:45;;;;;;;;;;;;;;;;;;7364194;19;1468;-63
2023/05/29 10:05:15;;;;;;;;;;;;;;;;;;7363608;19;1779;-63
2023/05/29 10:07:43;;;;;;;;;;;;;;;;;;7365972;19;1492;-63
2023/05/29 10:10:12;;;;;;;;;;;;;;;;;;7358719;19;1879;-69
2023/05/29 10:12:41;;;;;;;;;;;;;;;;;;7352254;19;2880;-63
2023/05/29 10:15:09;;;;;;;;;;;;;;;;;;7364102;19;1793;-64
2023/05/29 10:17:37;;;;;;;;;;;;;;;;;;7361224;19;1796;-63
2023/05/29 10:20:06;;;;;;;;;;;;;;;;;;7361667;19;1869;-64
2023/05/29 10:22:34;;;;;;;;;;;;;;;;;;7366951;19;1462;-63
2023/05/29 10:25:02;;;;;;;;;;;;;;;;;;7363278;19;1820;-63
2023/05/29 10:27:31;;;;;;;;;;;;;;;;;;7366178;19;1734;-63
2023/05/29 10:29:59;;;;;;;;;;;;;;;;;;7359557;19;1683;-64
2023/05/29 10:32:27;;;;;;;;;;;;;;;;;;7366256;19;1463;-64
2023/05/29 10:34:56;;;;;;;;;;;;;;;;;;7362267;19;884;-64
2023/05/29 10:37:25;;;;;;;;;;;;;;;;;;7361800;19;829;-64
2023/05/29 10:39:53;;;;;;;;;;;;;;;;;;7359849;19;2174;-64
2023/05/29 10:42:21;;;;;;;;;;;;;;;;;;7364795;19;1933;-64
2023/05/29 10:44:49;;;;;;;;;;;;;;;;;;7365153;19;1240;-63
2023/05/29 10:47:17;;;;;;;;;;;;;;;;;;7362527;19;802;-64
2023/05/29 10:49:46;;;;;;;;;;;;;;;;;;7356764;19;2062;-64
2023/05/29 10:52:14;;;;;;;;;;;;;;;;;;7357910;19;1956;-63
2023/05/29 10:54:42;;;;;;;;;;;;;;;;;;7356411;19;1996;-64
2023/05/29 10:57:10;;;;;;;;;;;;;;;;;;7360422;19;1855;-64
2023/05/29 10:59:39;;;;;;;;;;;;;;;;;;7355668;19;1860;-64
2023/05/29 11:02:07;;;;;;;;;;;;;;;;;;7363233;19;1917;-65
2023/05/29 11:04:36;;;;;;;;;;;;;;;;;;7367746;19;1985;-65
2023/05/29 11:07:08;;;;;;;;;;;;;;;;;;7370421;19;1784;-64
2023/05/29 11:09:37;;;;;;;;;;;;;;;;;;7370085;19;1322;-64
2023/05/29 11:12:05;;;;;;;;;;;;;;;;;;7368472;19;2053;-63
2023/05/29 11:14:33;;;;;;;;;;;;;;;;;;7366685;19;1997;-63
2023/05/29 11:17:01;;;;;;;;;;;;;;;;;;7369715;19;1714;-63
2023/05/29 11:19:30;;;;;;;;;;;;;;;;;;7367746;19;2108;-63
2023/05/29 11:21:58;;;;;;;;;;;;;;;;;;7370734;19;1627;-63
2023/05/29 11:24:26;;;;;;;;;;;;;;;;;;7367748;19;1724;-64
2023/05/29 11:26:54;;;;;;;;;;;;;;;;;;7370399;19;1823;-62
2023/05/29 11:29:22;;;;;;;;;;;;;;;;;;7364875;19;2051;-63
2023/05/29 11:31:51;;;;;;;;;;;;;;;;;;7369139;19;1830;-63
2023/05/29 11:34:19;;;;;;;;;;;;;;;;;;7368145;19;1980;-63
2023/05/29 11:36:48;;;;;;;;;;;;;;;;;;7368808;19;1809;-63
2023/05/29 11:39:16;;;;;;;;;;;;;;;;;;7367434;19;1842;-62
2023/05/29 11:41:45;;;;;;;;;;;;;;;;;;7365115;19;2095;-63
2023/05/29 11:44:13;;;;;;;;;;;;;;;;;;7368539;19;2117;-62
2023/05/29 11:46:41;;;;;;;;;;;;;;;;;;7369020;19;2155;-64
2023/05/29 11:49:09;;;;;;;;;;;;;;;;;;7367332;19;1762;-64
2023/05/29 11:51:37;;;;;;;;;;;;;;;;;;7368084;19;1943;-63
2023/05/29 11:54:06;;;;;;;;;;;;;;;;;;7368704;19;1871;-64
2023/05/29 11:56:34;;;;;;;;;;;;;;;;;;7369117;19;1780;-63
2023/05/29 11:59:05;;;;;;;;;;;;;;;;;;7366718;19;1673;-63
2023/05/29 12:01:34;;;;;;;;;;;;;;;;;;7363964;19;1852;-63
2023/05/29 12:04:02;;;;;;;;;;;;;;;;;;7369312;19;1483;-62
2023/05/29 12:06:30;;;;;;;;;;;;;;;;;;7368266;19;1551;-62
2023/05/29 12:08:58;;;;;;;;;;;;;;;;;;7367447;19;1644;-63
2023/05/29 12:11:27;;;;;;;;;;;;;;;;;;7365527;19;1743;-63
2023/05/29 12:13:55;;;;;;;;;;;;;;;;;;7365377;19;1891;-64
2023/05/29 12:16:23;;;;;;;;;;;;;;;;;;7370066;19;1815;-63
2023/05/29 12:18:51;;;;;;;;;;;;;;;;;;7366090;19;1776;-63
2023/05/29 12:21:19;;;;;;;;;;;;;;;;;;7363976;19;1859;-63
2023/05/29 12:23:48;;;;;;;;;;;;;;;;;;7368224;19;2150;-63
2023/05/29 12:26:16;;;;;;;;;;;;;;;;;;7370083;19;1838;-63
2023/05/29 12:28:44;;;;;;;;;;;;;;;;;;7364375;19;1348;-63
2023/05/29 12:31:12;;;;;;;;;;;;;;;;;;7367061;19;836;-63
2023/05/29 12:33:40;;;;;;;;;;;;;;;;;;7368084;19;1648;-62
2023/05/29 12:36:09;;;;;;;;;;;;;;;;;;7366323;19;1927;-62
2023/05/29 12:38:37;;;;;;;;;;;;;;;;;;7364778;19;1930;-62
2023/05/29 12:41:05;;;;;;;;;;;;;;;;;;7363964;19;1846;-62
2023/05/29 12:43:33;;;;;;;;;;;;;;;;;;7366725;19;2017;-62
2023/05/29 12:46:01;;;;;;;;;;;;;;;;;;7369028;19;1660;-62
2023/05/29 12:48:29;;;;;;;;;;;;;;;;;;7368375;19;1496;-62
2023/05/29 12:50:58;;;;;;;;;;;;;;;;;;7364608;19;787;-62
2023/05/29 12:53:26;;;;;;;;;;;;;;;;;;7368357;19;1617;-62
2023/05/29 12:55:56;;;;;;;;;;;;;;;;;;7368299;19;1307;-61
2023/05/29 12:58:25;;;;;;;;;;;;;;;;;;7364545;19;1321;-62
2023/05/29 13:00:55;;;;;;;;;;;;;;;;;;7364064;19;1964;-63
2023/05/29 13:03:23;;;;;;;;;;;;;;;;;;7367234;19;2019;-62
2023/05/29 13:05:52;;;;;;;;;;;;;;;;;;7368291;19;1666;-62
2023/05/29 13:08:20;;;;;;;;;;;;;;;;;;7364651;19;1683;-63
2023/05/29 13:10:49;;;;;;;;;;;;;;;;;;7364640;19;1727;-62
2023/05/29 13:13:18;;;;;;;;;;;;;;;;;;7363219;19;2094;-63
2023/05/29 13:15:46;;;;;;;;;;;;;;;;;;7361662;19;2065;-63
2023/05/29 13:18:14;;;;;;;;;;;;;;;;;;7361299;19;1863;-63
2023/05/29 13:20:42;;;;;;;;;;;;;;;;;;7360068;19;2019;-62
2023/05/29 13:23:11;;;;;;;;;;;;;;;;;;7364354;19;1927;-62
2023/05/29 13:25:39;;;;;;;;;;;;;;;;;;7363259;19;1816;-63
2023/05/29 13:28:07;;;;;;;;;;;;;;;;;;7365786;19;1790;-62
2023/05/29 13:30:35;;;;;;;;;;;;;;;;;;7364163;19;1823;-62
2023/05/29 13:33:04;;;;;;;;;;;;;;;;;;7366361;19;1968;-63
2023/05/29 13:35:32;;;;;;;;;;;;;;;;;;7368007;19;1728;-62
2023/05/29 13:38:00;;;;;;;;;;;;;;;;;;7365247;19;1941;-61
2023/05/29 13:40:28;;;;;;;;;;;;;;;;;;7363309;19;2002;-62
2023/05/29 13:42:56;;;;;;;;;;;;;;;;;;7366587;19;1976;-62
2023/05/29 13:45:27;;;;;;;;;;;;;;;;;;7365150;19;1749;-63
2023/05/29 13:47:55;;;;;;;;;;;;;;;;;;7363228;19;2138;-63
2023/05/29 13:50:24;;;;;;;;;;;;;;;;;;7364528;19;1592;-62
2023/05/29 13:52:52;;;;;;;;;;;;;;;;;;7367639;19;1893;-62
2023/05/29 13:55:21;;;;;;;;;;;;;;;;;;7365661;19;1738;-62
2023/05/29 13:57:49;;;;;;;;;;;;;;;;;;7366725;19;1238;-62
2023/05/29 14:00:17;;;;;;;;;;;;;;;;;;7362617;19;1887;-62
2023/05/29 14:02:45;;;;;;;;;;;;;;;;;;7366763;19;1667;-62
2023/05/29 14:05:13;;;;;;;;;;;;;;;;;;7364769;19;1805;-61
2023/05/29 14:07:41;;;;;;;;;;;;;;;;;;7365663;19;1632;-60
2023/05/29 14:10:09;;;;;;;;;;;;;;;;;;7360619;19;1924;-62
2023/05/29 14:12:38;;;;;;;;;;;;;;;;;;7361887;19;1959;-61
2023/05/29 14:15:06;;;;;;;;;;;;;;;;;;7359746;19;2012;-60
2023/05/29 14:17:34;;;;;;;;;;;;;;;;;;7367661;19;1437;-61
2023/05/29 14:20:04;;;;;;;;;;;;;;;;;;7361803;19;1858;-61
2023/05/29 14:22:32;;;;;;;;;;;;;;;;;;7359448;19;2052;-62
2023/05/29 14:25:00;;;;;;;;;;;;;;;;;;7362065;19;1857;-62
2023/05/29 14:27:29;;;;;;;;;;;;;;;;;;7363423;19;1930;-61
2023/05/29 14:29:57;;;;;;;;;;;;;;;;;;7360378;19;1266;-62
2023/05/29 14:32:25;;;;;;;;;;;;;;;;;;7363793;19;1672;-62
2023/05/29 14:34:54;;;;;;;;;;;;;;;;;;7365621;19;1770;-61
2023/05/29 14:37:22;;;;;;;;;;;;;;;;;;7370031;19;1826;-62
2023/05/29 14:39:50;;;;;;;;;;;;;;;;;;7367595;19;1884;-61
2023/05/29 14:42:18;;;;;;;;;;;;;;;;;;7366364;19;2105;-62
2023/05/29 14:44:46;;;;;;;;;;;;;;;;;;7367237;19;1759;-62
2023/05/29 14:47:15;;;;;;;;;;;;;;;;;;7371511;19;1747;-62
2023/05/29 14:49:43;;;;;;;;;;;;;;;;;;7366669;19;2106;-61
2023/05/29 14:52:12;;;;;;;;;;;;;;;;;;7371224;19;2063;-61
2023/05/29 14:54:40;;;;;;;;;;;;;;;;;;7369116;19;1827;-62
2023/05/29 14:57:08;;;;;;;;;;;;;;;;;;7370280;19;1848;-61
2023/05/29 14:59:36;;;;;;;;;;;;;;;;;;7370134;19;1699;-62
2023/05/29 15:02:04;;;;;;;;;;;;;;;;;;7367068;19;1860;-61
2023/05/29 15:04:33;;;;;;;;;;;;;;;;;;7368604;19;903;-62
2023/05/29 15:07:01;;;;;;;;;;;;;;;;;;7369976;19;2171;-62
2023/05/29 15:09:29;;;;;;;;;;;;;;;;;;7369914;19;2037;-62
2023/05/29 15:11:57;;;;;;;;;;;;;;;;;;7364912;19;1822;-61
2023/05/29 15:14:25;;;;;;;;;;;;;;;;;;7366905;19;1849;-60
2023/05/29 15:16:54;;;;;;;;;;;;;;;;;;7368691;19;1851;-62
2023/05/29 15:19:23;;;;;;;;;;;;;;;;;;7365566;19;1835;-62
2023/05/29 15:21:51;;;;;;;;;;;;;;;;;;7367016;19;1857;-62
2023/05/29 15:24:19;;;;;;;;;;;;;;;;;;7371181;19;1806;-60
2023/05/29 15:26:48;;;;;;;;;;;;;;;;;;7363705;19;925;-63
2023/05/29 15:29:16;;;;;;;;;;;;;;;;;;7361494;19;1761;-63
2023/05/29 15:31:44;;;;;;;;;;;;;;;;;;7369042;19;2060;-63
2023/05/29 15:34:13;;;;;;;;;;;;;;;;;;7371886;19;1447;-62
2023/05/29 15:36:41;;;;;;;;;;;;;;;;;;7370011;19;775;-63
2023/05/29 15:39:09;;;;;;;;;;;;;;;;;;7364607;19;1909;-62
2023/05/29 15:41:37;;;;;;;;;;;;;;;;;;7365895;19;1838;-63
2023/05/29 15:44:05;;;;;;;;;;;;;;;;;;7367244;19;1929;-62
2023/05/29 15:46:33;;;;;;;;;;;;;;;;;;7369515;19;1650;-62
2023/05/29 15:49:01;;;;;;;;;;;;;;;;;;7365018;19;1324;-62
2023/05/29 15:51:30;;;;;;;;;;;;;;;;;;7367059;19;791;-62
2023/05/29 15:53:58;;;;;;;;;;;;;;;;;;7367095;19;1802;-63
2023/05/29 15:56:28;;;;;;;;;;;;;;;;;;7370688;19;1463;-61
2023/05/29 15:58:56;;;;;;;;;;;;;;;;;;7365731;19;1685;-62
2023/05/29 16:01:24;;;;;;;;;;;;;;;;;;7363720;19;1866;-62
2023/05/29 16:03:52;;;;;;;;;;;;;;;;;;7367059;19;1792;-63
2023/05/29 16:06:20;;;;;;;;;;;;;;;;;;7368922;19;1655;-61
2023/05/29 16:08:49;;;;;;;;;;;;;;;;;;7368317;19;1811;-62
2023/05/29 16:11:17;;;;;;;;;;;;;;;;;;7366890;19;1714;-63
2023/05/29 16:13:46;;;;;;;;;;;;;;;;;;7364686;19;2114;-62
2023/05/29 16:16:16;;;;;;;;;;;;;;;;;;7368360;19;1463;-63
2023/05/29 16:18:44;;;;;;;;;;;;;;;;;;7366979;19;1939;-62
2023/05/29 16:21:12;;;;;;;;;;;;;;;;;;7364520;19;1835;-62
2023/05/29 16:23:40;;;;;;;;;;;;;;;;;;7368389;19;1771;-62
2023/05/29 16:26:08;;;;;;;;;;;;;;;;;;7368283;19;1845;-62
2023/05/29 16:28:37;;;;;;;;;;;;;;;;;;7364664;19;1824;-63
2023/05/29 16:31:05;;;;;;;;;;;;;;;;;;7365746;19;873;-62
2023/05/29 16:33:33;;;;;;;;;;;;;;;;;;7366984;19;1700;-63
2023/05/29 16:36:01;;;;;;;;;;;;;;;;;;7367083;19;1866;-62
2023/05/29 16:38:30;;;;;;;;;;;;;;;;;;7365087;19;2202;-63
2023/05/29 16:40:58;;;;;;;;;;;;;;;;;;7366929;19;1849;-63
2023/05/29 16:43:26;;;;;;;;;;;;;;;;;;7367874;19;1711;-63
2023/05/29 16:45:54;;;;;;;;;;;;;;;;;;7365853;19;793;-62
2023/05/29 16:48:22;;;;;;;;;;;;;;;;;;7364660;19;1276;-62
2023/05/29 16:50:50;;;;;;;;;;;;;;;;;;7369109;19;2269;-62
2023/05/29 16:53:19;;;;;;;;;;;;;;;;;;7368388;19;1789;-62
2023/05/29 16:55:47;;;;;;;;;;;;;;;;;;7365845;19;794;-62
2023/05/29 16:58:15;;;;;;;;;;;;;;;;;;7363016;19;1354;-62
2023/05/29 17:00:43;;;;;;;;;;;;;;;;;;7366441;19;2037;-63
2023/05/29 17:03:11;;;;;;;;;;;;;;;;;;7369942;19;1797;-62
2023/05/29 17:05:40;;;;;;;;;;;;;;;;;;7365787;19;841;-62
2023/05/29 17:08:08;;;;;;;;;;;;;;;;;;7363877;19;1735;-63
2023/05/29 17:10:36;;;;;;;;;;;;;;;;;;7368611;19;1865;-62
2023/05/29 17:13:05;;;;;;;;;;;;;;;;;;7368064;19;1811;-62
2023/05/29 17:15:33;;;;;;;;;;;;;;;;;;7369492;19;1789;-62